AirNav   Air Wisconsin pilot careers
 
 932 users online  

KTNT Dade-Collier Training and Transition Airport
Miami, Florida, USA


FAA INFORMATION EFFECTIVE 09 NOVEMBER 2017

Location

FAA Identifier: TNT
Lat/Long: 25-51-42.5000N / 080-53-49.2000W
25-51.708333N / 080-53.820000W
25.8618056 / -80.8970000
(estimated)
Elevation: 12.7 ft. / 3.9 m (surveyed)
Variation: 05W (2005)
From city: 36 miles W of MIAMI, FL
Time zone: UTC -5 (UTC -4 during Daylight Saving Time)
Zip code: 34141

Airport Operations

Airport use: Open to the public, ARPT CLSD TO PUBLIC EXCP BY ARRANGEMENT WITH MIAMI-DADE AVIATION DEPT MIAMI 305-869-1660.
Control tower: no
ARTCC: MIAMI CENTER
FSS: MIAMI FLIGHT SERVICE STATION
NOTAMs facility: MIA (NOTAM-D service available)
Attendance: CONTINUOUS
Wind indicator: lighted
Segmented circle: yes
Lights: DUSK-DAWN. ACTVT HIRL RY 09/27, PAPI RY 27 - CTAF OR BY CALLING 239-695-3300.
Beacon: white-green (lighted land airport)
Operates sunset to sunrise.
Landing fee: yes

Airport Communications

CTAF/UNICOM: 123.0
WX AWOS-3: 119.075 ((239) 695-9198)
MIAMI APPROACH: 128.6
MIAMI DEPARTURE: 128.6
  • APCH/DEP SVC PRVDD BY MIAMI ATCT ON FREQS 128.6/306.975

Nearby radio navigation aids

VOR radial/distance  VOR name  Freq  Var
DHPr281/29.8DOLPHIN VORTAC113.9004W

 
NDB name  Hdg/Dist  Freq  Var  ID
MONRY095/6.222705WTN - -.

Airport Services

Airframe service: NONE
Powerplant service: NONE
Bottled oxygen: NONE
Bulk oxygen: NONE

Runway Information

Runway 9/27

Dimensions: 10499 x 150 ft. / 3200 x 46 m
Surface: asphalt/porous friction courses, in good condition
Weight bearing capacity: 
Single wheel: 130.0
Double wheel: 200.0
Double tandem: 400.0
Dual double tandem: 800.0
Runway edge lights: high intensity
RUNWAY 9  RUNWAY 27
Latitude: 25-51.708232N25-51.707022N
Longitude: 080-54.777252W080-52.861753W
Elevation: 12.6 ft.12.4 ft.
Traffic pattern: leftright
Runway heading: 095 magnetic, 090 true275 magnetic, 270 true
Markings: precision, in fair conditionprecision, in fair condition
Visual slope indicator: 4-light PAPI on left (3.00 degrees glide path)
Approach lights: MALSR: 1,400 foot medium intensity approach lighting system with runway alignment indicator lights
Touchdown point: yes, no lightsyes, no lights
Instrument approach: ILS
Obstructions: 10 ft. brush, 200 ft. from runway, 450 ft. left of centerline15 ft. tree, 275 ft. from runway, 326 ft. left of centerline, 5:1 slope to clear
+10' BRUSH, 160' FM RY END, 310' R OF CNTRLN

Airport Ownership and Management from official FAA records

Ownership: Publicly-owned
Owner: MIAMI-DADE COUNTY
MIAMI-DADE AVIATION DEPARTMENT, P.O. BOX 025504
MIAMI, FL 33102-5504
Phone (305) 876-0464
Manager: NELSON MEJIAS
14201 NORTHWEST LEJEUNE ROAD
OPA-LOCKA, FL 33054
Phone (305) 869-1662
AIRPORT PHYSICAL ADDRESS: 54757 EAST TAMIAMI TRAIL, OCHOPPI, FL 34141 239-695-3300, FAX: 305-876-0565

Airport Operational Statistics

Aircraft operations: avg 40/day *
100% transient general aviation
* for 12-month period ending 05 January 2016

Additional Remarks

A100 ACR TRNG OPNS ONLY.
THREE 8IN WELLS FLUSH MTD BTN RWY AND TWY.
FEE FOR USE FOR ACFT OVER 12500 LBS.
MAEW IN BUFFER ISLAND BTN RY 09/27 & TWY.
WILDLIFE OCCASIONALLY ON & INVOF ARPT.
BE ALERT TO LOW FLYING NATIONAL PARK SVC ACFT ALL QUADRANTS.

Instrument Procedures

NOTE: All procedures below are presented as PDF files. If you need a reader for these files, you should download the free Adobe Reader.

NOT FOR NAVIGATION. Please procure official charts for flight.
FAA instrument procedures published for use between 9 November 2017 at 0901Z and 7 December 2017 at 0900Z.

 
IAPs - Instrument Approach Procedures
ILS OR LOC RWY 09   download (225KB)
RNAV (GPS) RWY 09   download (251KB)
NDB RWY 09   download (188KB)

Other nearby airports with instrument procedures:

KTMB - Miami Executive Airport (28 nm SE)
X51 - Miami Homestead General Aviation Airport (29 nm SE)
KMIA - Miami International Airport (33 nm E)
KOPF - Miami-Opa Locka Executive Airport (34 nm E)
KHST - Homestead Air Reserve Base (36 nm SE)
 
Loc | Ops | Rwys | IFR | FBO | Links
Com | Nav | Svcs | Stats | Notes

Reliance Aviation
AirBoss

 
Area around KTNT (Dade-Collier Training and Transition Airport)
 
Road maps at: MapQuest Bing Google
 
Aerial photo
WARNING: Photo may not be current or correct
Aerial photo of KTNT (Dade-Collier Training and Transition Airport)
Do you have a better or more recent aerial photo of Dade-Collier Training and Transition Airport that you would like to share? If so, please send us your photo.

 
Sectional chart

 
Airport distance calculator
Flying to Dade-Collier Training and Transition Airport? Find the distance to fly.

From to KTNT

Sunrise and sunset
Times for 18-Nov-2017
 Local
(UTC-5)
 Zulu
(UTC)
Morning civil twilight06:2011:20
Sunrise06:4511:45
Sunset17:3322:33
Evening civil twilight17:5722:57

Current date and time
Zulu (UTC)  18-Nov-2017 22:20:02
Local (UTC-5)  18-Nov-2017 17:20:02
 
METAR
KTMB 
28nm SE 
182153Z 08006KT 10SM FEW040 24/18 A2993 RMK AO2 SLP134 T02440183
KMIA 
32nm E 
182153Z 05006KT 10SM SCT038 SCT100 26/19 A2993 RMK AO2 SLP135 T02610189
KOPF 
33nm E 
182153Z 06006KT 10SM BKN041 BKN055 26/20 A2993 RMK AO2 SLP137 T02560200
KHWO 
37nm E 
182153Z AUTO 05006KT 10SM FEW060 26/18 A2994 RMK AO2 SLP139 T02560178
KHST 
37nm SE 
182156Z AUTO 05006KT 10SM FEW060 25/21 A2992 RMK AO2 SLPNO T02510210
KFLL 
42nm E 
182153Z 05007KT 10SM FEW038 SCT055 25/19 A2992 RMK AO2 SLP132 T02500189
KMKY 
43nm W 
182156Z AUTO 26005KT 10SM CLR 25/17 A2995 RMK AO2 SLP140 T02500172
KFXE 
43nm NE 
182153Z 07006KT 10SM SCT060 24/18 A2993 RMK AO2 SLP139 T02440183
KIMM 
44nm NW 
182155Z AUTO 00000KT 10SM BKN055 BKN070 BKN110 27/15 A2994 RMK AO2
KPMP 
48nm NE 
182153Z 05007KT 10SM CLR 26/18 A2993 RMK AO2 SLP137 T02560178 $
TAF
KTMB 
28nm SE 
181741Z 1818/1918 10010KT P6SM SCT045 FM190100 VRB03KT P6SM SKC FM191500 29008KT P6SM FEW045
KMIA 
32nm E 
181741Z 1818/1924 06010KT P6SM SCT045 FM190100 VRB03KT P6SM SKC FM191500 28008KT P6SM FEW040
KOPF 
33nm E 
181741Z 1818/1918 08010KT P6SM SCT045 FM190100 VRB03KT P6SM SKC FM191500 28008KT P6SM FEW040
NOTAMs
Click for the latest NOTAMs
NOTAMs are issued by the DoD/FAA and will open in a separate window not controlled by AirNav.

 

 
 

Would you like to see your business listed on this page?

 If your business provides an interesting product or service to pilots, flight crews, aircraft, or users of the Dade-Collier Training and Transition Airport, you should consider listing it here.  To start the listing process, click on the button below
 
Add a business
 

Other Pages about Dade-Collier Training and Transition Airport

Update a link
 
Copyright © AirNav, LLC. All rights reserved. Privacy Policy  Contact